Valley Peak, Santa Cruz Island Reserve, California Weather observations

Data are for 10 minute period ending at time listed.
 Day   Time   Solar   Ave.   Ave.  Ave.  Vector  Max.   Baro.   Total    
  of    of     Rad.   Air    Rel.  Wind   Wind   Wind  Press.  Precip.   
Year   Day            Temp.  Hum.  Speed  Dir.   Gust                    
2014   (PST)  Kw/m2    F      %     mph   deg.    mph    mb.     in.     
-------------------------------------------------------------------------
 113   11:50   0.98   71.3    28    4.0    57     9.9   965.3    0.00 
 113   12:00   0.98   69.2    29    3.7   344    11.3   965.2    0.00 
 113   12:10   0.98   71.3    27    3.3    49     9.2   965.0    0.00 
 113   12:20   0.98   71.3    26    6.2    42    14.8   965.0    0.00 
 113   12:30   0.96   72.7    26    4.2    28    11.4   965.1    0.00 
 113   12:40   0.96   71.7    26    6.7    39    14.2   965.0    0.00 
 113   12:50   0.95   71.1    27    7.5    31    16.9   965.0    0.00 
 113   13:00   0.94   69.8    28    9.1    29    17.4   964.9    0.00 
 113   13:10   0.93   70.8    27    6.1    43    13.4   964.8    0.00 
 113   13:20   0.91   75.5    25    5.3    63    10.5   964.8    0.00 
 113   13:30   0.88   75.0    25    3.8    40     7.7   964.7    0.00 
 113   13:40   0.88   73.2    25    3.2    10     8.3   964.6    0.00 
 113   13:50   0.86   74.6    26    6.0    58    12.4   964.5    0.00 
 113   14:00   0.84   76.3    25    4.7    50    10.4   964.5    0.00 
 113   14:10   0.82   74.7    25    4.4    14     9.6   964.4    0.00 
 113   14:20   0.80   73.5    26    7.3    41    13.7   964.3    0.00 
 113   14:30   0.77   74.4    25    4.3    52    11.2   964.2    0.00 
 113   14:40   0.75   75.4    24    4.0    31    12.9   964.1    0.00 
 113   14:50   0.71   73.6    25    6.1    18    13.5   964.0    0.00 
 113   15:00   0.67   71.3    27    6.1   358    14.0   963.9    0.00 
 113   15:10   0.65   70.4    27    7.5   336    15.9   963.8    0.00 
 113   15:20   0.62   69.9    28    9.0   348    17.1   963.7    0.00 
 113   15:30   0.59   69.9    28    9.4   326    16.7   963.6    0.00 
 113   15:40   0.56   69.8    28   10.2   323    18.6   963.5    0.00 
 113   15:50   0.52   69.6    28   10.5   326    19.1   963.5    0.00 
 113   16:00   0.48   69.3    28   10.1   328    19.5   963.4    0.00 
 113   16:10   0.45   69.7    28    9.8   316    16.1   963.3    0.00 
 113   16:20   0.41   70.4    27    7.7   321    14.3   963.3    0.00 
 113   16:30   0.38   70.3    28    7.7   306    14.8   963.3    0.00 
 113   16:40   0.34   70.0    28    8.1   303    15.9   963.3    0.00 
 113   16:50   0.30   69.7    29    8.6   325    18.4   963.2    0.00 
 113   17:00   0.27   68.7    29    9.2   331    17.1   963.1    0.00 
 113   17:10   0.23   67.9    30    9.4   336    16.9   962.9    0.00 
 113   17:20   0.19   68.2    29    8.7   324    16.4   962.9    0.00 
 113   17:30   0.16   68.1    29   11.1   324    19.5   962.8    0.00 
 113   17:40   0.13   67.3    29   10.6   336    17.2   962.8    0.00 
 113   17:50   0.10   67.2    29   11.2   324    18.3   962.9    0.00 
 113   18:00   0.07   66.8    31    9.1   308    15.9   963.0    0.00 
 113   18:10   0.04   65.0    37    6.8   267    12.3   963.0    0.00 
 113   18:20   0.02   61.8    42    9.1   271    14.2   963.0    0.00 
 113   18:30   0.01   60.8    43    6.9   277    10.7   963.1    0.00 
 113   18:40   0.00   60.1    42    8.5   296    14.8   963.2    0.00 
 113   18:50   0.00   61.0    38    8.6   308    13.5   963.3    0.00 
 113   19:00   0.00   61.8    36   11.0   320    16.2   963.4    0.00 
 113   19:10   0.00   62.1    35    9.3   337    15.1   963.5    0.00 
 113   19:20   0.00   62.1    34   10.7   343    15.9   963.6    0.00 
 113   19:30   0.00   62.0    35   10.9   353    15.4   963.6    0.00 
 113   19:40   0.00   61.4    36   10.8     3    15.2   963.8    0.00 
 113   19:50   0.00   61.5    35   11.4   356    16.3   963.9    0.00 
 113   20:00   0.00   60.5    38   10.7     0    17.6   964.0    0.00 
 113   20:10   0.00   61.1    36   14.1   354    18.9   963.8    0.00 
 113   20:20   0.00   60.8    36   15.0     3    20.1   963.9    0.00 
 113   20:30   0.00   60.6    36   15.6     7    23.2   963.9    0.00 
 113   20:40   0.00   59.7    38   16.0    20    19.1   963.9    0.00 
 113   20:50   0.00   59.3    39   15.9    17    19.7   963.9    0.00 
 113   21:00   0.00   59.2    39   17.5    17    21.5   964.0    0.00 
 113   21:10   0.00   60.1    36   18.5    20    22.1   964.0    0.00 
 113   21:20   0.00   60.5    35   16.8    13    20.2   964.2    0.00 
 113   21:30   0.00   60.5    34   16.8     6    20.7   964.3    0.00 
 113   21:40   0.00   60.7    34   15.3     8    18.4   964.4    0.00 
 113   21:50   0.00   60.4    34   15.9     2    19.4   964.4    0.00 
 113   22:00   0.00   60.8    32   14.8   358    20.0   964.5    0.00 
 113   22:10   0.00   61.2    30   14.2   354    19.6   964.4    0.00 
 113   22:20   0.00   61.1    30   14.2   351    19.9   964.4    0.00 
 113   22:30   0.00   61.7    28   14.1   354    17.5   964.4    0.00 
 113   22:40   0.00   60.7    31   13.8    14    17.2   964.4    0.00 
 113   22:50   0.00   60.2    32   13.4    14    16.4   964.4    0.00 
 113   23:00   0.00   59.3    34   10.8    21    13.4   964.5    0.00 
 113   23:10   0.00   59.2    35   11.3    15    13.7   964.5    0.00 
 113   23:20   0.00   58.8    36   11.3    21    12.9   964.4    0.00 
 113   23:30   0.00   58.1    37   11.0    14    13.0   964.5    0.00 
 113   23:40   0.00   58.8    37   10.3    14    12.3   964.5    0.00 
 113   23:50   0.00   58.5    37    9.9    14    12.3   964.6    0.00 
 114    0:00   0.00   59.6    33    9.9     9    13.1   964.6    0.00 
 114    0:10   0.00   60.6    32    8.5    14    10.7   964.5    0.00 
 114    0:20   0.00   60.8    31    8.9    15    11.0   964.5    0.00 
 114    0:30   0.00   60.9    31    8.9    14    11.0   964.3    0.00 
 114    0:40   0.00   60.6    32   10.1    12    12.7   964.3    0.00 
 114    0:50   0.00   60.5    32   10.0     9    12.3   964.4    0.00 
 114    1:00   0.00   60.5    33   10.3    13    12.6   964.3    0.00 
 114    1:10   0.00   60.4    34   11.8    18    13.4   964.3    0.00 
 114    1:20   0.00   60.0    34   10.4    15    12.0   964.3    0.00 
 114    1:30   0.00   59.4    35   10.8    16    12.6   964.2    0.00 
 114    1:40   0.00   60.2    34    9.9    16    12.0   964.2    0.00 
 114    1:50   0.00   60.4    34   10.1    10    12.0   964.2    0.00 
 114    2:00   0.00   60.5    34   10.0    11    12.2   964.2    0.00 
 114    2:10   0.00   60.0    34   10.9    12    12.7   964.1    0.00 
 114    2:20   0.00   59.6    35   10.8     8    12.9   964.0    0.00 
 114    2:30   0.00   60.0    34   11.3     1    13.7   964.1    0.00 
 114    2:40   0.00   60.1    34   11.5   356    13.9   964.0    0.00 
 114    2:50   0.00   59.6    34   11.7   356    13.4   964.1    0.00 
 114    3:00   0.00   59.8    34   12.6   352    14.2   964.2    0.00 
 114    3:10   0.00   60.4    33   12.3   354    13.7   964.2    0.00 
 114    3:20   0.00   60.7    31   10.8    12    14.0   964.2    0.00 
 114    3:30   0.00   60.9    30    9.7    22    11.5   964.2    0.00 
 114    3:40   0.00   60.6    30   10.3    20    11.8   964.2    0.00 
 114    3:50   0.00   60.8    28   10.6    19    12.3   964.3    0.00 
 114    4:00   0.00   60.9    28   10.5    17    11.9   964.3    0.00 
 114    4:10   0.00   60.9    28   10.9    20    12.1   964.4    0.00 
 114    4:20   0.00   60.5    30   10.1    16    11.2   964.5    0.00 
 114    4:30   0.00   60.5    30    9.3    13    11.0   964.5    0.00 
 114    4:40   0.00   60.1    31    9.6    21    11.3   964.5    0.00 
 114    4:50   0.00   59.3    33    4.6    48     8.3   964.7    0.00 
 114    5:00   0.00   58.5    34    0.9   134     2.3   964.7    0.00 
 114    5:10   0.00   58.5    33    2.9    38     4.3   964.8    0.00 
 114    5:20   0.00   58.8    33    4.1    40     4.9   964.8    0.00 
 114    5:30   0.01   58.6    34    5.0    33     5.5   964.9    0.00 
 114    5:40   0.02   58.5    35    4.2    40     4.7   965.0    0.00 
 114    5:50   0.07   58.5    37    4.1    42     4.8   965.1    0.00 
 114    6:00   0.09   58.7    38    2.7    40     3.7   965.3    0.00 
 114    6:10   0.12   58.8    38    3.6    41     4.8   965.4    0.00 
 114    6:20   0.15   59.6    37    2.9    41     4.0   965.5    0.00 
 114    6:30   0.19   60.7    35    2.6    49     3.3   965.7    0.00 
 114    6:40   0.23   62.0    34    2.3    51     3.3   965.8    0.00 
 114    6:50   0.27   62.9    34    2.3    56     3.7   965.9    0.00 
 114    7:00   0.31   62.3    38    1.3   112     2.7   965.9    0.00 
 114    7:10   0.35   61.9    38    2.7   106     4.4   965.9    0.00 
 114    7:20   0.39   62.7    36    2.7    86     4.3   966.0    0.00 
 114    7:30   0.42   63.5    38    1.9    60     4.2   966.1    0.00 
 114    7:40   0.46   64.7    40    2.9    62     4.4   966.2    0.00 
 114    7:50   0.49   65.2    43    0.6   105     2.4   966.2    0.00 
 114    8:00   0.53   64.6    50    0.7   184     2.0   966.3    0.00 
 114    8:10   0.56   64.8    51    1.8   108     5.0   966.3    0.00 
 114    8:20   0.60   65.8    50    1.6   138     3.8   966.2    0.00 
 114    8:30   0.63   66.5    48    2.9   144     4.7   966.2    0.00 
 114    8:40   0.66   66.8    48    2.7   149     5.0   966.2    0.00 
 114    8:50   0.69   66.8    46    2.9   146     5.6   966.2    0.00 
 114    9:00   0.72   66.5    45    2.9   147     5.5   966.3    0.00 
 114    9:10   0.75   67.6    44    3.2   147     6.4   966.3    0.00 
 114    9:20   0.78   67.8    41    2.3   156     5.7   966.4    0.00 
 114    9:30   0.80   68.6    43    2.2    92     4.5   966.5    0.00 
 114    9:40   0.83   69.3    42    2.4    97     5.7   966.6    0.00 
 114    9:50   0.85   69.5    42    1.8   131     5.3   966.6    0.00 
 114   10:00   0.87   69.8    43    1.6   133     4.6   966.5    0.00 
 114   10:10   0.89   70.2    43    2.8   146     7.8   966.3    0.00 
 114   10:20   0.90   71.4    42    3.6   114     6.9   966.3    0.00 
 114   10:30   0.92   71.9    38    2.9    94     6.8   966.3    0.00 
 114   10:40   0.94   71.9    38    2.6    90     5.2   966.3    0.00 
 114   10:50   0.95   72.2    37    3.6    76     6.6   966.2    0.00 
 114   11:00   0.95   72.4    39    3.7    82     6.4   966.2    0.00 
 114   11:10   0.96   72.9    37    3.6    68     6.3   966.1    0.00 
 114   11:20   0.97   73.1    35    3.3    60     6.4   966.1    0.00 
 114   11:30   0.97   73.4    36    3.3    69     6.6   965.9    0.00 
 114   11:40   0.98   73.1    36    3.2    75     6.4   965.8    0.00 

Return to Valley Peak, Santa Cruz Island Reserve graphs page.


Western Regional Climate Center,wrcc@dri.edu